Date,TemperatureHighF,TemperatureAvgF,TemperatureLowF,DewpointHighF,DewpointAvgF,DewpointLowF,HumidityHigh,HumidityAvg,HumidityLow,PressureMaxIn,PressureMinIn,WindSpeedMaxMPH,WindSpeedAvgMPH,GustSpeedMaxMPH,PrecipitationSumIn
2013-1-1,34,27,19,32,23,13,91,84,74,30.19,30.00,14,8,18,0.00
2013-1-2,34,25,15,19,13,9,82,63,40,30.21,30.11,9,3,13,0.00
2013-1-3,39,30,21,24,21,16,84,68,47,30.35,30.18,9,4,16,0.00
2013-1-4,44,34,23,24,20,18,84,60,37,30.40,30.27,11,5,17,0.00
2013-1-5,41,36,28,30,25,20,72,63,55,30.27,30.10,12,7,18,0.00
2013-1-7,47,42,36,24,23,22,58,48,37,30.16,30.08,12,9,18,0.00
2013-1-8,53,42,30,44,29,21,91,61,39,30.17,30.02,15,9,21,0.00
2013-1-9,55,48,43,43,39,30,92,73,48,30.36,30.16,18,6,24,0.00
2013-1-10,54,48,42,51,44,30,92,84,46,30.28,29.79,20,11,28,0.00
2013-1-11,64,54,46,46,44,41,87,69,43,29.83,29.71,20,13,34,0.00
2013-1-12,55,41,27,46,32,23,87,73,44,29.94,29.79,20,10,29,0.00
2013-1-13,27,21,15,24,16,8,86,78,71,30.29,29.87,12,7,17,0.00
2013-1-14,27,18,13,16,9,-100,80,70,58,30.40,30.29,10,5,13,0.00
2013-1-15,30,24,18,20,14,9,80,67,45,30.30,30.09,9,4,13,0.00
2013-1-16,40,28,15,21,16,10,84,63,39,30.11,30.03,13,4,21,0.00
2013-1-17,43,33,27,28,22,18,86,65,46,30.42,30.10,20,6,25,0.00
2013-1-18,56,40,25,27,22,18,80,53,24,30.44,30.13,15,10,22,0.00
2013-1-19,61,49,40,35,30,24,67,49,34,30.18,30.01,15,9,26,0.00
2013-1-20,50,40,28,33,19,10,72,46,23,30.25,30.14,15,6,21,0.00
2013-1-21,31,24,18,13,10,7,66,54,43,30.33,30.23,18,8,23,0.00
2013-1-22,32,25,19,15,11,7,63,54,44,30.31,30.18,11,6,16,0.00
2013-1-23,55,37,22,38,25,15,75,63,51,30.26,30.10,11,6,17,0.00
2013-1-24,35,29,22,21,12,8,62,49,38,30.35,30.08,22,12,30,0.00
2013-1-25,47,35,27,25,22,13,83,61,40,30.20,30.05,13,6,20,0.00
2013-1-26,56,43,31,24,22,20,66,45,26,30.26,30.11,20,8,27,0.00
2013-1-27,46,42,40,34,30,22,75,62,38,30.13,30.03,23,17,30,0.00
2013-1-28,72,67,60,58,57,55,85,70,55,29.94,29.81,20,14,32,0.00
2013-1-29,67,60,51,59,55,45,91,84,72,29.81,29.45,21,11,78,0.00
2013-1-30,51,33,26,48,27,16,91,77,65,29.94,29.41,25,16,38,0.00
2013-1-31,36,25,13,26,14,0,83,63,52,30.37,29.93,24,11,33,0.00